sensor_id;sensor_type;location;lat;lon;timestamp;P1;durP1;ratioP1;P2;durP2;ratioP2
25917;SDS011;13899;51.174;4.456;2023-08-12T00:00:29;6.10;;;3.43;;
25917;SDS011;13899;51.174;4.456;2023-08-12T00:02:55;7.07;;;4.17;;
25917;SDS011;13899;51.174;4.456;2023-08-12T00:05:21;6.93;;;3.70;;
25917;SDS011;13899;51.174;4.456;2023-08-12T00:07:47;5.50;;;3.63;;
25917;SDS011;13899;51.174;4.456;2023-08-12T00:10:14;5.35;;;3.65;;
25917;SDS011;13899;51.174;4.456;2023-08-12T00:12:39;7.53;;;3.90;;
25917;SDS011;13899;51.174;4.456;2023-08-12T00:15:06;6.88;;;3.90;;
25917;SDS011;13899;51.174;4.456;2023-08-12T00:17:33;5.93;;;3.95;;
25917;SDS011;13899;51.174;4.456;2023-08-12T00:19:59;7.00;;;4.22;;
25917;SDS011;13899;51.174;4.456;2023-08-12T00:22:26;10.43;;;4.25;;
25917;SDS011;13899;51.174;4.456;2023-08-12T00:24:52;6.93;;;3.63;;
25917;SDS011;13899;51.174;4.456;2023-08-12T00:27:17;7.27;;;4.27;;
25917;SDS011;13899;51.174;4.456;2023-08-12T00:29:43;6.80;;;4.20;;
25917;SDS011;13899;51.174;4.456;2023-08-12T00:32:09;6.30;;;4.60;;
25917;SDS011;13899;51.174;4.456;2023-08-12T00:34:35;6.60;;;4.07;;
25917;SDS011;13899;51.174;4.456;2023-08-12T00:37:01;7.40;;;4.85;;
25917;SDS011;13899;51.174;4.456;2023-08-12T00:39:26;7.77;;;4.60;;
25917;SDS011;13899;51.174;4.456;2023-08-12T00:41:52;6.23;;;4.70;;
25917;SDS011;13899;51.174;4.456;2023-08-12T00:44:18;8.07;;;5.00;;
25917;SDS011;13899;51.174;4.456;2023-08-12T00:46:43;10.17;;;4.30;;
25917;SDS011;13899;51.174;4.456;2023-08-12T00:49:10;10.13;;;5.97;;
25917;SDS011;13899;51.174;4.456;2023-08-12T00:51:38;7.32;;;5.28;;
25917;SDS011;13899;51.174;4.456;2023-08-12T00:54:06;7.85;;;5.07;;
25917;SDS011;13899;51.174;4.456;2023-08-12T00:56:36;9.75;;;6.13;;
25917;SDS011;13899;51.174;4.456;2023-08-12T00:59:02;7.03;;;5.43;;
25917;SDS011;13899;51.174;4.456;2023-08-12T01:01:30;7.80;;;4.95;;
25917;SDS011;13899;51.174;4.456;2023-08-12T01:03:56;8.95;;;5.03;;
25917;SDS011;13899;51.174;4.456;2023-08-12T01:06:23;7.07;;;5.07;;
25917;SDS011;13899;51.174;4.456;2023-08-12T01:08:49;10.15;;;5.10;;
25917;SDS011;13899;51.174;4.456;2023-08-12T01:11:26;9.52;;;4.50;;
25917;SDS011;13899;51.174;4.456;2023-08-12T01:16:43;6.97;;;4.50;;
25917;SDS011;13899;51.174;4.456;2023-08-12T01:19:22;5.95;;;3.97;;
25917;SDS011;13899;51.174;4.456;2023-08-12T01:21:52;6.95;;;4.80;;
25917;SDS011;13899;51.174;4.456;2023-08-12T01:26:46;7.05;;;4.05;;
25917;SDS011;13899;51.174;4.456;2023-08-12T01:29:12;5.17;;;4.10;;
25917;SDS011;13899;51.174;4.456;2023-08-12T01:31:40;5.57;;;3.20;;
25917;SDS011;13899;51.174;4.456;2023-08-12T01:34:17;6.60;;;3.60;;
25917;SDS011;13899;51.174;4.456;2023-08-12T01:36:58;5.32;;;3.78;;
25917;SDS011;13899;51.174;4.456;2023-08-12T01:39:24;7.40;;;4.15;;
25917;SDS011;13899;51.174;4.456;2023-08-12T01:41:52;7.97;;;4.00;;
25917;SDS011;13899;51.174;4.456;2023-08-12T01:44:19;4.90;;;3.75;;
25917;SDS011;13899;51.174;4.456;2023-08-12T01:46:45;5.23;;;3.60;;
25917;SDS011;13899;51.174;4.456;2023-08-12T01:49:11;6.55;;;3.78;;
25917;SDS011;13899;51.174;4.456;2023-08-12T01:51:37;7.17;;;4.13;;
25917;SDS011;13899;51.174;4.456;2023-08-12T01:54:02;7.47;;;4.03;;
25917;SDS011;13899;51.174;4.456;2023-08-12T01:56:28;8.73;;;4.03;;
25917;SDS011;13899;51.174;4.456;2023-08-12T01:58:54;7.43;;;4.20;;
25917;SDS011;13899;51.174;4.456;2023-08-12T02:01:20;6.93;;;4.03;;
25917;SDS011;13899;51.174;4.456;2023-08-12T02:03:45;7.33;;;4.17;;
25917;SDS011;13899;51.174;4.456;2023-08-12T02:06:11;6.13;;;3.80;;
25917;SDS011;13899;51.174;4.456;2023-08-12T02:08:36;8.47;;;4.47;;
25917;SDS011;13899;51.174;4.456;2023-08-12T02:11:02;6.60;;;4.00;;
25917;SDS011;13899;51.174;4.456;2023-08-12T02:13:28;8.27;;;4.83;;
25917;SDS011;13899;51.174;4.456;2023-08-12T02:15:54;6.43;;;4.60;;
25917;SDS011;13899;51.174;4.456;2023-08-12T02:18:20;8.90;;;4.60;;
25917;SDS011;13899;51.174;4.456;2023-08-12T02:20:49;5.00;;;4.50;;
25917;SDS011;13899;51.174;4.456;2023-08-12T02:23:14;8.25;;;4.18;;
25917;SDS011;13899;51.174;4.456;2023-08-12T02:25:40;6.13;;;4.97;;
25917;SDS011;13899;51.174;4.456;2023-08-12T02:28:05;12.57;;;4.73;;
25917;SDS011;13899;51.174;4.456;2023-08-12T02:30:31;8.27;;;5.00;;
25917;SDS011;13899;51.174;4.456;2023-08-12T02:32:58;10.48;;;4.80;;
25917;SDS011;13899;51.174;4.456;2023-08-12T02:35:23;6.33;;;4.57;;
25917;SDS011;13899;51.174;4.456;2023-08-12T02:37:49;8.50;;;5.03;;
25917;SDS011;13899;51.174;4.456;2023-08-12T02:40:15;8.97;;;4.63;;
25917;SDS011;13899;51.174;4.456;2023-08-12T02:42:41;6.50;;;4.50;;
25917;SDS011;13899;51.174;4.456;2023-08-12T02:45:07;6.33;;;4.60;;
25917;SDS011;13899;51.174;4.456;2023-08-12T02:47:32;7.10;;;4.70;;
25917;SDS011;13899;51.174;4.456;2023-08-12T02:49:58;7.37;;;4.33;;
25917;SDS011;13899;51.174;4.456;2023-08-12T02:52:24;6.53;;;4.20;;
25917;SDS011;13899;51.174;4.456;2023-08-12T02:54:49;6.87;;;4.73;;
25917;SDS011;13899;51.174;4.456;2023-08-12T02:57:15;5.70;;;4.93;;
25917;SDS011;13899;51.174;4.456;2023-08-12T02:59:41;5.77;;;4.30;;
25917;SDS011;13899;51.174;4.456;2023-08-12T03:02:06;6.97;;;5.13;;
25917;SDS011;13899;51.174;4.456;2023-08-12T03:04:33;5.85;;;4.68;;
25917;SDS011;13899;51.174;4.456;2023-08-12T03:06:58;7.77;;;4.47;;
25917;SDS011;13899;51.174;4.456;2023-08-12T03:09:24;7.53;;;4.77;;
25917;SDS011;13899;51.174;4.456;2023-08-12T03:11:50;5.70;;;4.87;;
25917;SDS011;13899;51.174;4.456;2023-08-12T03:14:15;5.60;;;3.90;;
25917;SDS011;13899;51.174;4.456;2023-08-12T03:16:41;5.37;;;4.80;;
25917;SDS011;13899;51.174;4.456;2023-08-12T03:19:08;5.75;;;4.63;;
25917;SDS011;13899;51.174;4.456;2023-08-12T03:21:33;7.90;;;4.57;;
25917;SDS011;13899;51.174;4.456;2023-08-12T03:23:59;8.00;;;4.90;;
25917;SDS011;13899;51.174;4.456;2023-08-12T03:26:25;8.17;;;4.17;;
25917;SDS011;13899;51.174;4.456;2023-08-12T03:28:51;5.93;;;4.67;;
25917;SDS011;13899;51.174;4.456;2023-08-12T03:31:16;8.23;;;4.70;;
25917;SDS011;13899;51.174;4.456;2023-08-12T03:33:42;8.57;;;4.67;;
25917;SDS011;13899;51.174;4.456;2023-08-12T03:36:08;7.35;;;4.85;;
25917;SDS011;13899;51.174;4.456;2023-08-12T03:38:34;9.07;;;5.57;;
25917;SDS011;13899;51.174;4.456;2023-08-12T03:41:01;6.70;;;5.40;;
25917;SDS011;13899;51.174;4.456;2023-08-12T03:43:27;7.72;;;5.47;;
25917;SDS011;13899;51.174;4.456;2023-08-12T03:45:53;7.70;;;5.20;;
25917;SDS011;13899;51.174;4.456;2023-08-12T03:48:18;11.53;;;5.53;;
25917;SDS011;13899;51.174;4.456;2023-08-12T03:50:44;6.23;;;5.63;;
25917;SDS011;13899;51.174;4.456;2023-08-12T03:53:11;7.00;;;5.88;;
25917;SDS011;13899;51.174;4.456;2023-08-12T03:55:37;9.27;;;5.87;;
25917;SDS011;13899;51.174;4.456;2023-08-12T03:58:03;6.97;;;6.33;;
25917;SDS011;13899;51.174;4.456;2023-08-12T04:00:30;9.45;;;6.38;;
25917;SDS011;13899;51.174;4.456;2023-08-12T04:02:56;8.68;;;7.10;;
25917;SDS011;13899;51.174;4.456;2023-08-12T04:05:21;9.07;;;5.97;;
25917;SDS011;13899;51.174;4.456;2023-08-12T04:07:47;7.90;;;5.67;;
25917;SDS011;13899;51.174;4.456;2023-08-12T04:10:13;9.70;;;6.40;;
25917;SDS011;13899;51.174;4.456;2023-08-12T04:12:40;10.87;;;6.17;;
25917;SDS011;13899;51.174;4.456;2023-08-12T04:15:07;9.13;;;6.70;;
25917;SDS011;13899;51.174;4.456;2023-08-12T04:17:33;9.48;;;5.43;;
25917;SDS011;13899;51.174;4.456;2023-08-12T04:19:59;7.00;;;5.13;;
25917;SDS011;13899;51.174;4.456;2023-08-12T04:22:25;7.57;;;5.10;;
25917;SDS011;13899;51.174;4.456;2023-08-12T04:24:51;6.60;;;4.93;;
25917;SDS011;13899;51.174;4.456;2023-08-12T04:27:17;6.37;;;4.83;;
25917;SDS011;13899;51.174;4.456;2023-08-12T04:29:42;7.77;;;5.20;;
25917;SDS011;13899;51.174;4.456;2023-08-12T04:32:08;7.80;;;4.70;;
25917;SDS011;13899;51.174;4.456;2023-08-12T04:34:34;8.50;;;5.13;;
25917;SDS011;13899;51.174;4.456;2023-08-12T04:37:00;7.73;;;5.13;;
25917;SDS011;13899;51.174;4.456;2023-08-12T04:39:25;7.53;;;5.13;;
25917;SDS011;13899;51.174;4.456;2023-08-12T04:41:51;6.83;;;4.90;;
25917;SDS011;13899;51.174;4.456;2023-08-12T04:44:17;6.67;;;4.13;;
25917;SDS011;13899;51.174;4.456;2023-08-12T04:46:42;7.57;;;4.77;;
25917;SDS011;13899;51.174;4.456;2023-08-12T04:49:08;7.63;;;4.50;;
25917;SDS011;13899;51.174;4.456;2023-08-12T04:51:33;5.27;;;4.33;;
25917;SDS011;13899;51.174;4.456;2023-08-12T04:53:59;5.17;;;4.67;;
25917;SDS011;13899;51.174;4.456;2023-08-12T04:56:27;5.97;;;5.00;;
25917;SDS011;13899;51.174;4.456;2023-08-12T04:58:55;6.35;;;5.25;;
25917;SDS011;13899;51.174;4.456;2023-08-12T05:01:21;8.20;;;5.63;;
25917;SDS011;13899;51.174;4.456;2023-08-12T05:03:47;9.20;;;5.83;;
25917;SDS011;13899;51.174;4.456;2023-08-12T05:06:13;6.73;;;6.13;;
25917;SDS011;13899;51.174;4.456;2023-08-12T05:08:38;6.40;;;5.83;;
25917;SDS011;13899;51.174;4.456;2023-08-12T05:11:04;8.23;;;6.20;;
25917;SDS011;13899;51.174;4.456;2023-08-12T05:13:30;8.27;;;6.47;;
25917;SDS011;13899;51.174;4.456;2023-08-12T05:15:56;8.17;;;7.37;;
25917;SDS011;13899;51.174;4.456;2023-08-12T05:18:22;8.02;;;6.95;;
25917;SDS011;13899;51.174;4.456;2023-08-12T05:20:51;7.18;;;6.47;;
25917;SDS011;13899;51.174;4.456;2023-08-12T05:23:17;7.97;;;6.82;;
25917;SDS011;13899;51.174;4.456;2023-08-12T05:25:45;7.18;;;6.57;;
25917;SDS011;13899;51.174;4.456;2023-08-12T05:28:10;7.37;;;6.63;;
25917;SDS011;13899;51.174;4.456;2023-08-12T05:30:36;7.10;;;6.40;;
25917;SDS011;13899;51.174;4.456;2023-08-12T05:35:32;7.13;;;6.43;;
25917;SDS011;13899;51.174;4.456;2023-08-12T05:37:59;6.57;;;4.90;;
25917;SDS011;13899;51.174;4.456;2023-08-12T05:40:24;6.30;;;5.70;;
25917;SDS011;13899;51.174;4.456;2023-08-12T05:42:50;5.97;;;5.17;;
25917;SDS011;13899;51.174;4.456;2023-08-12T05:45:16;6.23;;;5.67;;
25917;SDS011;13899;51.174;4.456;2023-08-12T05:47:42;8.13;;;5.83;;
25917;SDS011;13899;51.174;4.456;2023-08-12T05:50:07;5.53;;;4.97;;
25917;SDS011;13899;51.174;4.456;2023-08-12T05:52:33;5.40;;;4.87;;
25917;SDS011;13899;51.174;4.456;2023-08-12T05:54:59;5.07;;;4.60;;
25917;SDS011;13899;51.174;4.456;2023-08-12T05:57:25;4.83;;;4.10;;
25917;SDS011;13899;51.174;4.456;2023-08-12T05:59:50;4.90;;;4.30;;
25917;SDS011;13899;51.174;4.456;2023-08-12T06:02:16;5.10;;;4.60;;
25917;SDS011;13899;51.174;4.456;2023-08-12T06:04:42;4.23;;;3.93;;
25917;SDS011;13899;51.174;4.456;2023-08-12T06:07:07;4.63;;;4.23;;
25917;SDS011;13899;51.174;4.456;2023-08-12T06:09:33;4.60;;;3.93;;
25917;SDS011;13899;51.174;4.456;2023-08-12T06:11:59;4.33;;;3.70;;
25917;SDS011;13899;51.174;4.456;2023-08-12T06:14:24;4.30;;;3.43;;
25917;SDS011;13899;51.174;4.456;2023-08-12T06:16:50;3.43;;;3.13;;
25917;SDS011;13899;51.174;4.456;2023-08-12T06:19:16;3.10;;;2.90;;
25917;SDS011;13899;51.174;4.456;2023-08-12T06:21:42;5.18;;;2.70;;
25917;SDS011;13899;51.174;4.456;2023-08-12T06:24:07;2.90;;;2.10;;
25917;SDS011;13899;51.174;4.456;2023-08-12T06:26:33;2.40;;;2.20;;
25917;SDS011;13899;51.174;4.456;2023-08-12T06:28:59;2.33;;;2.13;;
25917;SDS011;13899;51.174;4.456;2023-08-12T06:31:24;1.97;;;1.60;;
25917;SDS011;13899;51.174;4.456;2023-08-12T06:33:50;1.60;;;1.50;;
25917;SDS011;13899;51.174;4.456;2023-08-12T06:36:16;1.40;;;1.30;;
25917;SDS011;13899;51.174;4.456;2023-08-12T06:38:41;1.17;;;1.00;;
25917;SDS011;13899;51.174;4.456;2023-08-12T06:41:07;1.27;;;0.90;;
25917;SDS011;13899;51.174;4.456;2023-08-12T06:43:32;0.83;;;0.70;;
25917;SDS011;13899;51.174;4.456;2023-08-12T06:45:58;0.63;;;0.60;;
25917;SDS011;13899;51.174;4.456;2023-08-12T06:48:24;3.10;;;0.50;;
25917;SDS011;13899;51.174;4.456;2023-08-12T06:50:55;0.87;;;0.80;;
25917;SDS011;13899;51.174;4.456;2023-08-12T06:53:21;1.15;;;0.57;;
25917;SDS011;13899;51.174;4.456;2023-08-12T06:55:47;0.50;;;0.50;;
25917;SDS011;13899;51.174;4.456;2023-08-12T06:58:13;1.00;;;0.50;;
25917;SDS011;13899;51.174;4.456;2023-08-12T07:00:40;0.60;;;0.50;;
25917;SDS011;13899;51.174;4.456;2023-08-12T07:03:05;1.03;;;0.60;;
25917;SDS011;13899;51.174;4.456;2023-08-12T07:05:31;0.50;;;0.50;;
25917;SDS011;13899;51.174;4.456;2023-08-12T07:07:57;1.73;;;0.63;;
25917;SDS011;13899;51.174;4.456;2023-08-12T07:10:22;0.83;;;0.63;;
25917;SDS011;13899;51.174;4.456;2023-08-12T07:12:48;1.07;;;0.97;;
25917;SDS011;13899;51.174;4.456;2023-08-12T07:15:14;1.30;;;1.20;;
25917;SDS011;13899;51.174;4.456;2023-08-12T07:17:39;2.60;;;2.40;;
25917;SDS011;13899;51.174;4.456;2023-08-12T07:20:05;2.67;;;2.47;;
25917;SDS011;13899;51.174;4.456;2023-08-12T07:22:33;3.42;;;3.13;;
25917;SDS011;13899;51.174;4.456;2023-08-12T07:24:59;3.63;;;3.00;;
25917;SDS011;13899;51.174;4.456;2023-08-12T07:27:25;3.97;;;2.77;;
25917;SDS011;13899;51.174;4.456;2023-08-12T07:29:51;2.83;;;2.42;;
25917;SDS011;13899;51.174;4.456;2023-08-12T07:32:17;3.17;;;2.87;;
25917;SDS011;13899;51.174;4.456;2023-08-12T07:34:43;3.47;;;2.70;;
25917;SDS011;13899;51.174;4.456;2023-08-12T07:37:09;4.00;;;3.10;;
25917;SDS011;13899;51.174;4.456;2023-08-12T07:39:35;2.93;;;2.63;;
25917;SDS011;13899;51.174;4.456;2023-08-12T07:42:01;4.67;;;2.70;;
25917;SDS011;13899;51.174;4.456;2023-08-12T07:44:27;4.53;;;2.40;;
25917;SDS011;13899;51.174;4.456;2023-08-12T07:46:53;3.67;;;2.67;;
25917;SDS011;13899;51.174;4.456;2023-08-12T07:49:18;4.90;;;4.43;;
25917;SDS011;13899;51.174;4.456;2023-08-12T07:51:44;11.87;;;10.77;;
25917;SDS011;13899;51.174;4.456;2023-08-12T07:54:10;14.37;;;13.27;;
25917;SDS011;13899;51.174;4.456;2023-08-12T07:56:35;22.93;;;20.37;;
25917;SDS011;13899;51.174;4.456;2023-08-12T07:59:01;22.35;;;19.38;;
25917;SDS011;13899;51.174;4.456;2023-08-12T08:01:27;23.27;;;20.85;;
25917;SDS011;13899;51.174;4.456;2023-08-12T08:03:53;25.63;;;20.27;;
25917;SDS011;13899;51.174;4.456;2023-08-12T08:06:19;26.33;;;22.00;;
25917;SDS011;13899;51.174;4.456;2023-08-12T08:08:44;19.63;;;17.77;;
25917;SDS011;13899;51.174;4.456;2023-08-12T08:11:10;27.67;;;24.47;;
25917;SDS011;13899;51.174;4.456;2023-08-12T08:13:36;33.17;;;26.00;;
25917;SDS011;13899;51.174;4.456;2023-08-12T08:16:01;31.40;;;25.40;;
25917;SDS011;13899;51.174;4.456;2023-08-12T08:18:27;32.67;;;26.97;;
25917;SDS011;13899;51.174;4.456;2023-08-12T08:20:53;23.23;;;21.13;;
25917;SDS011;13899;51.174;4.456;2023-08-12T08:23:18;17.83;;;16.00;;
25917;SDS011;13899;51.174;4.456;2023-08-12T08:25:44;13.47;;;12.17;;
25917;SDS011;13899;51.174;4.456;2023-08-12T08:28:10;10.03;;;9.10;;
25917;SDS011;13899;51.174;4.456;2023-08-12T08:30:36;8.27;;;7.10;;
25917;SDS011;13899;51.174;4.456;2023-08-12T08:33:02;5.28;;;3.45;;
25917;SDS011;13899;51.174;4.456;2023-08-12T08:35:28;3.57;;;2.73;;
25917;SDS011;13899;51.174;4.456;2023-08-12T08:37:54;3.60;;;1.80;;
25917;SDS011;13899;51.174;4.456;2023-08-12T08:40:19;3.13;;;1.77;;
25917;SDS011;13899;51.174;4.456;2023-08-12T08:42:45;2.23;;;1.50;;
25917;SDS011;13899;51.174;4.456;2023-08-12T08:45:15;2.40;;;1.25;;
25917;SDS011;13899;51.174;4.456;2023-08-12T08:47:42;3.17;;;1.40;;
25917;SDS011;13899;51.174;4.456;2023-08-12T08:50:10;6.20;;;1.60;;
25917;SDS011;13899;51.174;4.456;2023-08-12T08:52:36;4.90;;;2.20;;
25917;SDS011;13899;51.174;4.456;2023-08-12T08:55:03;2.90;;;2.17;;
25917;SDS011;13899;51.174;4.456;2023-08-12T08:57:29;4.65;;;3.10;;
25917;SDS011;13899;51.174;4.456;2023-08-12T08:59:55;4.15;;;2.00;;
25917;SDS011;13899;51.174;4.456;2023-08-12T09:02:21;3.80;;;2.10;;
25917;SDS011;13899;51.174;4.456;2023-08-12T09:04:48;4.72;;;1.38;;
25917;SDS011;13899;51.174;4.456;2023-08-12T09:07:14;2.35;;;1.17;;
25917;SDS011;13899;51.174;4.456;2023-08-12T09:09:41;2.73;;;1.27;;
25917;SDS011;13899;51.174;4.456;2023-08-12T09:12:12;2.63;;;1.20;;
25917;SDS011;13899;51.174;4.456;2023-08-12T09:14:40;3.72;;;1.23;;
25917;SDS011;13899;51.174;4.456;2023-08-12T09:19:32;2.97;;;0.93;;
25917;SDS011;13899;51.174;4.456;2023-08-12T09:21:58;4.07;;;1.00;;
25917;SDS011;13899;51.174;4.456;2023-08-12T09:24:24;4.33;;;1.27;;
25917;SDS011;13899;51.174;4.456;2023-08-12T09:26:51;4.35;;;1.48;;
25917;SDS011;13899;51.174;4.456;2023-08-12T09:29:17;2.55;;;1.60;;
25917;SDS011;13899;51.174;4.456;2023-08-12T09:31:43;3.53;;;2.90;;
25917;SDS011;13899;51.174;4.456;2023-08-12T09:34:10;4.53;;;3.47;;
25917;SDS011;13899;51.174;4.456;2023-08-12T09:36:36;5.05;;;4.05;;
25917;SDS011;13899;51.174;4.456;2023-08-12T09:39:06;8.77;;;6.40;;
25917;SDS011;13899;51.174;4.456;2023-08-12T09:41:33;7.78;;;5.78;;
25917;SDS011;13899;51.174;4.456;2023-08-12T09:44:05;8.63;;;5.47;;
25917;SDS011;13899;51.174;4.456;2023-08-12T09:46:34;6.57;;;5.00;;
25917;SDS011;13899;51.174;4.456;2023-08-12T09:49:00;5.68;;;5.07;;
25917;SDS011;13899;51.174;4.456;2023-08-12T09:51:26;7.47;;;4.20;;
25917;SDS011;13899;51.174;4.456;2023-08-12T09:53:52;9.55;;;5.30;;
25917;SDS011;13899;51.174;4.456;2023-08-12T09:56:19;5.03;;;2.37;;
25917;SDS011;13899;51.174;4.456;2023-08-12T09:58:48;5.82;;;2.83;;
25917;SDS011;13899;51.174;4.456;2023-08-12T10:01:16;7.68;;;3.78;;
25917;SDS011;13899;51.174;4.456;2023-08-12T10:03:48;3.30;;;1.67;;
25917;SDS011;13899;51.174;4.456;2023-08-12T10:06:15;2.53;;;2.28;;
25917;SDS011;13899;51.174;4.456;2023-08-12T10:08:42;5.07;;;2.22;;
25917;SDS011;13899;51.174;4.456;2023-08-12T10:11:10;8.55;;;7.57;;
25917;SDS011;13899;51.174;4.456;2023-08-12T10:13:40;6.15;;;5.65;;
25917;SDS011;13899;51.174;4.456;2023-08-12T10:16:06;5.85;;;5.22;;
25917;SDS011;13899;51.174;4.456;2023-08-12T10:18:34;3.15;;;2.45;;
25917;SDS011;13899;51.174;4.456;2023-08-12T10:21:01;5.53;;;4.93;;
25917;SDS011;13899;51.174;4.456;2023-08-12T10:23:33;4.32;;;1.85;;
25917;SDS011;13899;51.174;4.456;2023-08-12T10:25:59;4.43;;;1.30;;
25917;SDS011;13899;51.174;4.456;2023-08-12T10:28:27;3.85;;;1.20;;
25917;SDS011;13899;51.174;4.456;2023-08-12T10:30:54;7.60;;;7.00;;
25917;SDS011;13899;51.174;4.456;2023-08-12T10:33:21;3.92;;;2.13;;
25917;SDS011;13899;51.174;4.456;2023-08-12T10:38:18;5.57;;;2.88;;
25917;SDS011;13899;51.174;4.456;2023-08-12T10:40:45;4.43;;;1.83;;
25917;SDS011;13899;51.174;4.456;2023-08-12T10:43:15;5.55;;;2.40;;
25917;SDS011;13899;51.174;4.456;2023-08-12T10:45:44;4.80;;;4.32;;
25917;SDS011;13899;51.174;4.456;2023-08-12T10:48:16;4.57;;;1.80;;
25917;SDS011;13899;51.174;4.456;2023-08-12T10:50:44;3.75;;;2.42;;
25917;SDS011;13899;51.174;4.456;2023-08-12T10:53:25;4.93;;;1.83;;
25917;SDS011;13899;51.174;4.456;2023-08-12T10:56:04;6.68;;;2.65;;
25917;SDS011;13899;51.174;4.456;2023-08-12T10:58:33;3.65;;;1.60;;
25917;SDS011;13899;51.174;4.456;2023-08-12T11:01:11;4.82;;;4.00;;
25917;SDS011;13899;51.174;4.456;2023-08-12T11:03:44;5.63;;;5.20;;
25917;SDS011;13899;51.174;4.456;2023-08-12T11:06:10;4.20;;;2.83;;
25917;SDS011;13899;51.174;4.456;2023-08-12T11:08:36;4.13;;;3.80;;
25917;SDS011;13899;51.174;4.456;2023-08-12T11:11:22;6.40;;;5.82;;
25917;SDS011;13899;51.174;4.456;2023-08-12T11:13:57;4.80;;;1.27;;
25917;SDS011;13899;51.174;4.456;2023-08-12T11:16:36;5.35;;;4.85;;
25917;SDS011;13899;51.174;4.456;2023-08-12T11:19:02;5.20;;;4.53;;
25917;SDS011;13899;51.174;4.456;2023-08-12T11:21:29;4.35;;;3.22;;
25917;SDS011;13899;51.174;4.456;2023-08-12T11:23:55;6.15;;;2.40;;
25917;SDS011;13899;51.174;4.456;2023-08-12T11:26:23;9.00;;;8.50;;
25917;SDS011;13899;51.174;4.456;2023-08-12T11:28:49;5.10;;;1.98;;
25917;SDS011;13899;51.174;4.456;2023-08-12T11:31:15;7.30;;;6.82;;
25917;SDS011;13899;51.174;4.456;2023-08-12T11:36:08;6.38;;;2.58;;
25917;SDS011;13899;51.174;4.456;2023-08-12T11:38:34;4.23;;;1.10;;
25917;SDS011;13899;51.174;4.456;2023-08-12T11:41:02;3.17;;;1.80;;
25917;SDS011;13899;51.174;4.456;2023-08-12T11:43:28;4.43;;;3.58;;
25917;SDS011;13899;51.174;4.456;2023-08-12T11:45:55;2.92;;;1.77;;
25917;SDS011;13899;51.174;4.456;2023-08-12T11:48:21;4.10;;;3.70;;
25917;SDS011;13899;51.174;4.456;2023-08-12T11:50:49;4.07;;;1.52;;
25917;SDS011;13899;51.174;4.456;2023-08-12T11:53:15;3.90;;;1.40;;
25917;SDS011;13899;51.174;4.456;2023-08-12T11:55:41;4.78;;;4.20;;
25917;SDS011;13899;51.174;4.456;2023-08-12T11:58:07;2.92;;;1.10;;
25917;SDS011;13899;51.174;4.456;2023-08-12T12:00:36;6.53;;;6.05;;
25917;SDS011;13899;51.174;4.456;2023-08-12T12:05:29;9.00;;;8.40;;
25917;SDS011;13899;51.174;4.456;2023-08-12T12:10:27;8.05;;;7.47;;
25917;SDS011;13899;51.174;4.456;2023-08-12T12:12:56;3.25;;;1.27;;
25917;SDS011;13899;51.174;4.456;2023-08-12T12:15:23;14.75;;;7.72;;
25917;SDS011;13899;51.174;4.456;2023-08-12T12:17:49;4.27;;;1.97;;
25917;SDS011;13899;51.174;4.456;2023-08-12T12:22:42;5.55;;;1.00;;
25917;SDS011;13899;51.174;4.456;2023-08-12T12:25:11;3.47;;;2.78;;
25917;SDS011;13899;51.174;4.456;2023-08-12T12:27:39;8.98;;;8.38;;
25917;SDS011;13899;51.174;4.456;2023-08-12T12:30:12;5.78;;;4.55;;
25917;SDS011;13899;51.174;4.456;2023-08-12T12:32:39;3.90;;;3.60;;
25917;SDS011;13899;51.174;4.456;2023-08-12T12:35:05;6.32;;;5.85;;
25917;SDS011;13899;51.174;4.456;2023-08-12T12:37:32;3.30;;;1.00;;
25917;SDS011;13899;51.174;4.456;2023-08-12T12:39:58;4.97;;;3.58;;
25917;SDS011;13899;51.174;4.456;2023-08-12T12:42:24;3.72;;;2.33;;
25917;SDS011;13899;51.174;4.456;2023-08-12T12:44:50;4.93;;;0.90;;
25917;SDS011;13899;51.174;4.456;2023-08-12T12:47:15;1.93;;;0.90;;
25917;SDS011;13899;51.174;4.456;2023-08-12T12:49:41;3.03;;;1.02;;
25917;SDS011;13899;51.174;4.456;2023-08-12T12:52:07;7.93;;;7.33;;
25917;SDS011;13899;51.174;4.456;2023-08-12T12:54:33;4.03;;;3.73;;
25917;SDS011;13899;51.174;4.456;2023-08-12T12:56:58;2.80;;;1.70;;
25917;SDS011;13899;51.174;4.456;2023-08-12T12:59:24;6.75;;;6.30;;
25917;SDS011;13899;51.174;4.456;2023-08-12T13:01:50;3.17;;;0.90;;
25917;SDS011;13899;51.174;4.456;2023-08-12T13:04:15;3.30;;;1.40;;
25917;SDS011;13899;51.174;4.456;2023-08-12T13:06:41;4.20;;;3.73;;
25917;SDS011;13899;51.174;4.456;2023-08-12T13:09:07;2.80;;;0.70;;
25917;SDS011;13899;51.174;4.456;2023-08-12T13:11:33;9.30;;;8.80;;
25917;SDS011;13899;51.174;4.456;2023-08-12T13:14:02;2.90;;;2.53;;
25917;SDS011;13899;51.174;4.456;2023-08-12T13:18:55;2.65;;;0.93;;
25917;SDS011;13899;51.174;4.456;2023-08-12T13:21:23;3.65;;;0.90;;
25917;SDS011;13899;51.174;4.456;2023-08-12T13:23:49;2.67;;;0.90;;
25917;SDS011;13899;51.174;4.456;2023-08-12T13:26:15;4.70;;;1.55;;
25917;SDS011;13899;51.174;4.456;2023-08-12T13:28:41;3.80;;;1.00;;
25917;SDS011;13899;51.174;4.456;2023-08-12T13:31:07;3.00;;;1.40;;
25917;SDS011;13899;51.174;4.456;2023-08-12T13:33:33;2.67;;;1.20;;
25917;SDS011;13899;51.174;4.456;2023-08-12T13:35:59;4.13;;;0.80;;
25917;SDS011;13899;51.174;4.456;2023-08-12T13:38:25;3.43;;;0.90;;
25917;SDS011;13899;51.174;4.456;2023-08-12T13:40:50;4.23;;;1.37;;
25917;SDS011;13899;51.174;4.456;2023-08-12T13:43:16;2.73;;;1.40;;
25917;SDS011;13899;51.174;4.456;2023-08-12T13:45:41;4.07;;;1.27;;
25917;SDS011;13899;51.174;4.456;2023-08-12T13:48:07;1.77;;;0.80;;
25917;SDS011;13899;51.174;4.456;2023-08-12T13:50:33;3.77;;;0.87;;
25917;SDS011;13899;51.174;4.456;2023-08-12T13:52:59;2.50;;;1.40;;
25917;SDS011;13899;51.174;4.456;2023-08-12T13:55:25;2.23;;;0.90;;
25917;SDS011;13899;51.174;4.456;2023-08-12T13:57:51;3.90;;;1.00;;
25917;SDS011;13899;51.174;4.456;2023-08-12T14:00:17;8.35;;;7.80;;
25917;SDS011;13899;51.174;4.456;2023-08-12T14:05:10;2.75;;;0.80;;
25917;SDS011;13899;51.174;4.456;2023-08-12T14:10:02;2.55;;;0.93;;
25917;SDS011;13899;51.174;4.456;2023-08-12T14:14:54;1.75;;;0.70;;
25917;SDS011;13899;51.174;4.456;2023-08-12T14:17:21;3.45;;;1.45;;
25917;SDS011;13899;51.174;4.456;2023-08-12T14:19:49;3.10;;;1.27;;
25917;SDS011;13899;51.174;4.456;2023-08-12T14:24:50;4.68;;;4.30;;
25917;SDS011;13899;51.174;4.456;2023-08-12T14:27:16;4.07;;;2.27;;
25917;SDS011;13899;51.174;4.456;2023-08-12T14:29:44;3.05;;;2.85;;
25917;SDS011;13899;51.174;4.456;2023-08-12T14:32:10;4.07;;;1.33;;
25917;SDS011;13899;51.174;4.456;2023-08-12T14:34:36;2.80;;;1.10;;
25917;SDS011;13899;51.174;4.456;2023-08-12T14:37:02;4.63;;;2.77;;
25917;SDS011;13899;51.174;4.456;2023-08-12T14:39:28;3.78;;;1.52;;
25917;SDS011;13899;51.174;4.456;2023-08-12T14:41:53;6.00;;;5.47;;
25917;SDS011;13899;51.174;4.456;2023-08-12T14:44:19;3.83;;;3.20;;
25917;SDS011;13899;51.174;4.456;2023-08-12T14:46:45;3.97;;;2.43;;
25917;SDS011;13899;51.174;4.456;2023-08-12T14:49:10;2.73;;;1.53;;
25917;SDS011;13899;51.174;4.456;2023-08-12T14:51:36;3.75;;;2.05;;
25917;SDS011;13899;51.174;4.456;2023-08-12T14:54:02;4.37;;;3.10;;
25917;SDS011;13899;51.174;4.456;2023-08-12T14:56:28;3.33;;;3.03;;
25917;SDS011;13899;51.174;4.456;2023-08-12T14:58:54;3.87;;;1.20;;
25917;SDS011;13899;51.174;4.456;2023-08-12T15:01:19;7.23;;;1.60;;
25917;SDS011;13899;51.174;4.456;2023-08-12T15:06:11;5.47;;;1.43;;
25917;SDS011;13899;51.174;4.456;2023-08-12T15:11:04;4.25;;;1.70;;
25917;SDS011;13899;51.174;4.456;2023-08-12T15:13:29;3.90;;;1.23;;
25917;SDS011;13899;51.174;4.456;2023-08-12T15:15:55;3.10;;;1.13;;
25917;SDS011;13899;51.174;4.456;2023-08-12T15:18:20;3.20;;;1.40;;
25917;SDS011;13899;51.174;4.456;2023-08-12T15:20:46;3.50;;;1.47;;